sensor_id;sensor_type;location;lat;lon;timestamp;P1;durP1;ratioP1;P2;durP2;ratioP2
2934;SDS011;2462;51.456;7.248;2022-07-04T00:00:22;4.70;;;1.40;;
2934;SDS011;2462;51.456;7.248;2022-07-04T00:02:48;3.03;;;1.87;;
2934;SDS011;2462;51.456;7.248;2022-07-04T00:05:15;3.40;;;2.23;;
2934;SDS011;2462;51.456;7.248;2022-07-04T00:07:41;6.03;;;3.70;;
2934;SDS011;2462;51.456;7.248;2022-07-04T00:10:09;2.57;;;1.50;;
2934;SDS011;2462;51.456;7.248;2022-07-04T00:12:35;1.50;;;1.27;;
2934;SDS011;2462;51.456;7.248;2022-07-04T00:15:02;3.20;;;1.70;;
2934;SDS011;2462;51.456;7.248;2022-07-04T00:17:29;2.03;;;1.20;;
2934;SDS011;2462;51.456;7.248;2022-07-04T00:19:54;1.10;;;0.80;;
2934;SDS011;2462;51.456;7.248;2022-07-04T00:22:20;2.00;;;1.43;;
2934;SDS011;2462;51.456;7.248;2022-07-04T00:24:45;1.63;;;0.80;;
2934;SDS011;2462;51.456;7.248;2022-07-04T00:27:11;1.40;;;0.80;;
2934;SDS011;2462;51.456;7.248;2022-07-04T00:29:36;1.83;;;0.90;;
2934;SDS011;2462;51.456;7.248;2022-07-04T00:32:02;1.27;;;0.93;;
2934;SDS011;2462;51.456;7.248;2022-07-04T00:34:28;4.30;;;1.00;;
2934;SDS011;2462;51.456;7.248;2022-07-04T00:36:54;1.10;;;0.80;;
2934;SDS011;2462;51.456;7.248;2022-07-04T00:39:19;1.90;;;1.00;;
2934;SDS011;2462;51.456;7.248;2022-07-04T00:41:45;1.43;;;0.90;;
2934;SDS011;2462;51.456;7.248;2022-07-04T00:44:12;3.53;;;0.90;;
2934;SDS011;2462;51.456;7.248;2022-07-04T00:46:40;2.13;;;1.00;;
2934;SDS011;2462;51.456;7.248;2022-07-04T00:49:07;1.77;;;0.83;;
2934;SDS011;2462;51.456;7.248;2022-07-04T00:51:33;1.40;;;0.70;;
2934;SDS011;2462;51.456;7.248;2022-07-04T00:53:59;2.00;;;0.73;;
2934;SDS011;2462;51.456;7.248;2022-07-04T00:56:25;2.93;;;1.10;;
2934;SDS011;2462;51.456;7.248;2022-07-04T00:58:51;1.53;;;0.90;;
2934;SDS011;2462;51.456;7.248;2022-07-04T01:01:18;4.07;;;1.00;;
2934;SDS011;2462;51.456;7.248;2022-07-04T01:03:44;2.07;;;1.07;;
2934;SDS011;2462;51.456;7.248;2022-07-04T01:06:10;1.53;;;1.43;;
2934;SDS011;2462;51.456;7.248;2022-07-04T01:08:40;1.60;;;0.80;;
2934;SDS011;2462;51.456;7.248;2022-07-04T01:11:06;1.67;;;1.20;;
2934;SDS011;2462;51.456;7.248;2022-07-04T01:13:33;4.40;;;1.20;;
2934;SDS011;2462;51.456;7.248;2022-07-04T01:15:59;3.03;;;1.60;;
2934;SDS011;2462;51.456;7.248;2022-07-04T01:18:25;3.50;;;1.53;;
2934;SDS011;2462;51.456;7.248;2022-07-04T01:20:51;1.40;;;1.00;;
2934;SDS011;2462;51.456;7.248;2022-07-04T01:23:16;4.67;;;1.03;;
2934;SDS011;2462;51.456;7.248;2022-07-04T01:25:42;1.70;;;1.20;;
2934;SDS011;2462;51.456;7.248;2022-07-04T01:28:09;2.23;;;1.80;;
2934;SDS011;2462;51.456;7.248;2022-07-04T01:30:35;3.00;;;1.60;;
2934;SDS011;2462;51.456;7.248;2022-07-04T01:33:03;4.43;;;1.63;;
2934;SDS011;2462;51.456;7.248;2022-07-04T01:35:29;2.30;;;1.60;;
2934;SDS011;2462;51.456;7.248;2022-07-04T01:37:56;2.40;;;1.13;;
2934;SDS011;2462;51.456;7.248;2022-07-04T01:40:22;2.50;;;1.40;;
2934;SDS011;2462;51.456;7.248;2022-07-04T01:42:48;4.00;;;1.77;;
2934;SDS011;2462;51.456;7.248;2022-07-04T01:45:13;3.17;;;1.47;;
2934;SDS011;2462;51.456;7.248;2022-07-04T01:47:39;1.80;;;1.17;;
2934;SDS011;2462;51.456;7.248;2022-07-04T01:50:06;2.70;;;1.40;;
2934;SDS011;2462;51.456;7.248;2022-07-04T01:52:34;5.90;;;1.70;;
2934;SDS011;2462;51.456;7.248;2022-07-04T01:55:00;5.33;;;1.80;;
2934;SDS011;2462;51.456;7.248;2022-07-04T01:57:26;1.60;;;1.30;;
2934;SDS011;2462;51.456;7.248;2022-07-04T01:59:51;2.80;;;1.60;;
2934;SDS011;2462;51.456;7.248;2022-07-04T02:02:35;3.70;;;1.47;;
2934;SDS011;2462;51.456;7.248;2022-07-04T02:05:02;3.10;;;1.70;;
2934;SDS011;2462;51.456;7.248;2022-07-04T02:07:28;7.40;;;1.93;;
2934;SDS011;2462;51.456;7.248;2022-07-04T02:09:54;4.93;;;1.90;;
2934;SDS011;2462;51.456;7.248;2022-07-04T02:12:19;4.23;;;1.17;;
2934;SDS011;2462;51.456;7.248;2022-07-04T02:15:04;5.77;;;1.70;;
2934;SDS011;2462;51.456;7.248;2022-07-04T02:17:30;3.20;;;1.60;;
2934;SDS011;2462;51.456;7.248;2022-07-04T02:19:55;4.03;;;1.50;;
2934;SDS011;2462;51.456;7.248;2022-07-04T02:22:21;5.77;;;2.30;;
2934;SDS011;2462;51.456;7.248;2022-07-04T02:24:46;3.37;;;1.40;;
2934;SDS011;2462;51.456;7.248;2022-07-04T02:27:12;3.70;;;1.67;;
2934;SDS011;2462;51.456;7.248;2022-07-04T02:29:37;6.13;;;1.60;;
2934;SDS011;2462;51.456;7.248;2022-07-04T02:32:03;2.20;;;1.30;;
2934;SDS011;2462;51.456;7.248;2022-07-04T02:34:29;5.50;;;2.17;;
2934;SDS011;2462;51.456;7.248;2022-07-04T02:36:55;3.53;;;2.00;;
2934;SDS011;2462;51.456;7.248;2022-07-04T02:39:20;5.03;;;2.03;;
2934;SDS011;2462;51.456;7.248;2022-07-04T02:41:46;3.63;;;1.93;;
2934;SDS011;2462;51.456;7.248;2022-07-04T02:44:11;2.90;;;1.90;;
2934;SDS011;2462;51.456;7.248;2022-07-04T02:46:37;3.03;;;1.60;;
2934;SDS011;2462;51.456;7.248;2022-07-04T02:49:03;3.67;;;1.90;;
2934;SDS011;2462;51.456;7.248;2022-07-04T02:51:29;3.87;;;1.93;;
2934;SDS011;2462;51.456;7.248;2022-07-04T02:53:55;3.10;;;1.57;;
2934;SDS011;2462;51.456;7.248;2022-07-04T02:56:21;3.47;;;2.50;;
2934;SDS011;2462;51.456;7.248;2022-07-04T02:58:46;3.57;;;2.13;;
2934;SDS011;2462;51.456;7.248;2022-07-04T03:01:12;4.70;;;2.50;;
2934;SDS011;2462;51.456;7.248;2022-07-04T03:03:38;2.17;;;1.80;;
2934;SDS011;2462;51.456;7.248;2022-07-04T03:06:04;4.03;;;1.90;;
2934;SDS011;2462;51.456;7.248;2022-07-04T03:08:34;4.17;;;2.10;;
2934;SDS011;2462;51.456;7.248;2022-07-04T03:10:59;2.03;;;1.73;;
2934;SDS011;2462;51.456;7.248;2022-07-04T03:13:25;4.70;;;2.00;;
2934;SDS011;2462;51.456;7.248;2022-07-04T03:15:51;4.33;;;1.80;;
2934;SDS011;2462;51.456;7.248;2022-07-04T03:18:17;2.70;;;2.10;;
2934;SDS011;2462;51.456;7.248;2022-07-04T03:20:42;2.17;;;1.70;;
2934;SDS011;2462;51.456;7.248;2022-07-04T03:23:08;4.27;;;1.90;;
2934;SDS011;2462;51.456;7.248;2022-07-04T03:25:34;2.70;;;2.17;;
2934;SDS011;2462;51.456;7.248;2022-07-04T03:28:00;2.13;;;1.70;;
2934;SDS011;2462;51.456;7.248;2022-07-04T03:30:25;3.93;;;1.73;;
2934;SDS011;2462;51.456;7.248;2022-07-04T03:32:51;8.63;;;2.00;;
2934;SDS011;2462;51.456;7.248;2022-07-04T03:35:17;3.03;;;1.93;;
2934;SDS011;2462;51.456;7.248;2022-07-04T03:37:43;2.73;;;1.90;;
2934;SDS011;2462;51.456;7.248;2022-07-04T03:40:08;4.07;;;2.10;;
2934;SDS011;2462;51.456;7.248;2022-07-04T03:42:34;3.20;;;1.90;;
2934;SDS011;2462;51.456;7.248;2022-07-04T03:45:00;3.07;;;2.07;;
2934;SDS011;2462;51.456;7.248;2022-07-04T03:47:25;5.60;;;2.60;;
2934;SDS011;2462;51.456;7.248;2022-07-04T03:49:51;3.67;;;2.10;;
2934;SDS011;2462;51.456;7.248;2022-07-04T03:52:16;5.13;;;4.23;;
2934;SDS011;2462;51.456;7.248;2022-07-04T03:54:42;2.70;;;1.90;;
2934;SDS011;2462;51.456;7.248;2022-07-04T03:57:08;3.73;;;2.23;;
2934;SDS011;2462;51.456;7.248;2022-07-04T03:59:33;6.63;;;2.53;;
2934;SDS011;2462;51.456;7.248;2022-07-04T04:02:01;4.33;;;2.67;;
2934;SDS011;2462;51.456;7.248;2022-07-04T04:04:27;5.13;;;2.40;;
2934;SDS011;2462;51.456;7.248;2022-07-04T04:07:11;5.43;;;3.67;;
2934;SDS011;2462;51.456;7.248;2022-07-04T04:09:37;5.80;;;2.50;;
2934;SDS011;2462;51.456;7.248;2022-07-04T04:12:03;5.83;;;3.23;;
2934;SDS011;2462;51.456;7.248;2022-07-04T04:14:28;4.13;;;2.37;;
2934;SDS011;2462;51.456;7.248;2022-07-04T04:16:54;7.23;;;2.57;;
2934;SDS011;2462;51.456;7.248;2022-07-04T04:19:20;4.83;;;2.60;;
2934;SDS011;2462;51.456;7.248;2022-07-04T04:21:45;4.73;;;2.87;;
2934;SDS011;2462;51.456;7.248;2022-07-04T04:24:11;6.77;;;2.97;;
2934;SDS011;2462;51.456;7.248;2022-07-04T04:26:36;5.50;;;2.97;;
2934;SDS011;2462;51.456;7.248;2022-07-04T04:29:02;4.50;;;2.43;;
2934;SDS011;2462;51.456;7.248;2022-07-04T04:31:28;6.37;;;2.60;;
2934;SDS011;2462;51.456;7.248;2022-07-04T04:33:55;3.40;;;2.80;;
2934;SDS011;2462;51.456;7.248;2022-07-04T04:36:21;6.73;;;3.03;;
2934;SDS011;2462;51.456;7.248;2022-07-04T04:38:47;4.60;;;3.30;;
2934;SDS011;2462;51.456;7.248;2022-07-04T04:41:12;6.70;;;3.53;;
2934;SDS011;2462;51.456;7.248;2022-07-04T04:43:38;9.47;;;3.40;;
2934;SDS011;2462;51.456;7.248;2022-07-04T04:46:03;4.07;;;2.90;;
2934;SDS011;2462;51.456;7.248;2022-07-04T04:48:29;4.30;;;2.80;;
2934;SDS011;2462;51.456;7.248;2022-07-04T04:50:54;7.30;;;3.03;;
2934;SDS011;2462;51.456;7.248;2022-07-04T04:53:20;7.33;;;3.07;;
2934;SDS011;2462;51.456;7.248;2022-07-04T04:55:48;3.67;;;3.00;;
2934;SDS011;2462;51.456;7.248;2022-07-04T04:58:13;5.20;;;2.60;;
2934;SDS011;2462;51.456;7.248;2022-07-04T05:00:39;7.53;;;3.33;;
2934;SDS011;2462;51.456;7.248;2022-07-04T05:03:04;6.10;;;3.43;;
2934;SDS011;2462;51.456;7.248;2022-07-04T05:05:30;4.93;;;2.90;;
2934;SDS011;2462;51.456;7.248;2022-07-04T05:07:55;4.90;;;3.13;;
2934;SDS011;2462;51.456;7.248;2022-07-04T05:10:21;8.57;;;3.53;;
2934;SDS011;2462;51.456;7.248;2022-07-04T05:12:47;6.87;;;3.27;;
2934;SDS011;2462;51.456;7.248;2022-07-04T05:15:13;7.70;;;3.33;;
2934;SDS011;2462;51.456;7.248;2022-07-04T05:17:38;5.30;;;3.80;;
2934;SDS011;2462;51.456;7.248;2022-07-04T05:20:04;6.73;;;3.37;;
2934;SDS011;2462;51.456;7.248;2022-07-04T05:22:30;6.13;;;3.60;;
2934;SDS011;2462;51.456;7.248;2022-07-04T05:24:56;5.30;;;3.23;;
2934;SDS011;2462;51.456;7.248;2022-07-04T05:27:21;6.27;;;3.27;;
2934;SDS011;2462;51.456;7.248;2022-07-04T05:29:47;4.00;;;2.90;;
2934;SDS011;2462;51.456;7.248;2022-07-04T05:32:12;9.37;;;3.40;;
2934;SDS011;2462;51.456;7.248;2022-07-04T05:34:38;5.40;;;3.80;;
2934;SDS011;2462;51.456;7.248;2022-07-04T05:37:03;9.43;;;3.70;;
2934;SDS011;2462;51.456;7.248;2022-07-04T05:39:30;6.87;;;4.07;;
2934;SDS011;2462;51.456;7.248;2022-07-04T05:41:57;12.10;;;5.10;;
2934;SDS011;2462;51.456;7.248;2022-07-04T05:44:23;9.57;;;5.30;;
2934;SDS011;2462;51.456;7.248;2022-07-04T05:46:49;11.67;;;5.57;;
2934;SDS011;2462;51.456;7.248;2022-07-04T05:49:14;9.20;;;4.20;;
2934;SDS011;2462;51.456;7.248;2022-07-04T05:51:40;11.00;;;4.33;;
2934;SDS011;2462;51.456;7.248;2022-07-04T05:54:05;9.80;;;4.43;;
2934;SDS011;2462;51.456;7.248;2022-07-04T05:56:31;9.87;;;4.90;;
2934;SDS011;2462;51.456;7.248;2022-07-04T05:58:56;6.70;;;4.27;;
2934;SDS011;2462;51.456;7.248;2022-07-04T06:01:22;8.07;;;3.93;;
2934;SDS011;2462;51.456;7.248;2022-07-04T06:03:48;4.87;;;3.60;;
2934;SDS011;2462;51.456;7.248;2022-07-04T06:06:14;6.67;;;3.40;;
2934;SDS011;2462;51.456;7.248;2022-07-04T06:08:40;7.13;;;3.80;;
2934;SDS011;2462;51.456;7.248;2022-07-04T06:11:06;5.43;;;3.47;;
2934;SDS011;2462;51.456;7.248;2022-07-04T06:13:31;6.20;;;2.93;;
2934;SDS011;2462;51.456;7.248;2022-07-04T06:15:57;11.03;;;3.00;;
2934;SDS011;2462;51.456;7.248;2022-07-04T06:18:22;5.23;;;2.90;;
2934;SDS011;2462;51.456;7.248;2022-07-04T06:20:49;2.97;;;2.30;;
2934;SDS011;2462;51.456;7.248;2022-07-04T06:23:14;6.37;;;3.00;;
2934;SDS011;2462;51.456;7.248;2022-07-04T06:25:40;6.80;;;2.50;;
2934;SDS011;2462;51.456;7.248;2022-07-04T06:28:05;8.37;;;2.60;;
2934;SDS011;2462;51.456;7.248;2022-07-04T06:30:31;7.13;;;2.20;;
2934;SDS011;2462;51.456;7.248;2022-07-04T06:32:57;6.40;;;2.20;;
2934;SDS011;2462;51.456;7.248;2022-07-04T06:35:33;8.07;;;2.37;;
2934;SDS011;2462;51.456;7.248;2022-07-04T06:38:12;3.83;;;2.63;;
2934;SDS011;2462;51.456;7.248;2022-07-04T06:40:41;2.37;;;2.13;;
2934;SDS011;2462;51.456;7.248;2022-07-04T06:43:07;5.07;;;2.43;;
2934;SDS011;2462;51.456;7.248;2022-07-04T06:45:32;3.30;;;1.70;;
2934;SDS011;2462;51.456;7.248;2022-07-04T06:48:01;3.00;;;1.80;;
2934;SDS011;2462;51.456;7.248;2022-07-04T06:50:29;5.43;;;4.73;;
2934;SDS011;2462;51.456;7.248;2022-07-04T06:52:57;1.90;;;1.70;;
2934;SDS011;2462;51.456;7.248;2022-07-04T06:55:27;4.23;;;2.13;;
2934;SDS011;2462;51.456;7.248;2022-07-04T06:57:52;3.60;;;2.13;;
2934;SDS011;2462;51.456;7.248;2022-07-04T07:00:18;4.83;;;2.53;;
2934;SDS011;2462;51.456;7.248;2022-07-04T07:02:43;5.90;;;3.10;;
2934;SDS011;2462;51.456;7.248;2022-07-04T07:05:09;4.20;;;2.70;;
2934;SDS011;2462;51.456;7.248;2022-07-04T07:07:34;5.57;;;2.83;;
2934;SDS011;2462;51.456;7.248;2022-07-04T07:10:00;3.90;;;2.43;;
2934;SDS011;2462;51.456;7.248;2022-07-04T07:12:31;3.53;;;3.23;;
2934;SDS011;2462;51.456;7.248;2022-07-04T07:14:57;3.90;;;2.07;;
2934;SDS011;2462;51.456;7.248;2022-07-04T07:17:22;3.63;;;2.30;;
2934;SDS011;2462;51.456;7.248;2022-07-04T07:19:48;5.50;;;1.90;;
2934;SDS011;2462;51.456;7.248;2022-07-04T07:22:13;5.20;;;2.10;;
2934;SDS011;2462;51.456;7.248;2022-07-04T07:24:40;3.13;;;1.90;;
2934;SDS011;2462;51.456;7.248;2022-07-04T07:27:06;4.77;;;2.30;;
2934;SDS011;2462;51.456;7.248;2022-07-04T07:29:33;2.63;;;2.00;;
2934;SDS011;2462;51.456;7.248;2022-07-04T07:31:58;1.63;;;1.40;;
2934;SDS011;2462;51.456;7.248;2022-07-04T07:34:24;1.90;;;1.70;;
2934;SDS011;2462;51.456;7.248;2022-07-04T07:36:50;3.37;;;1.70;;
2934;SDS011;2462;51.456;7.248;2022-07-04T07:39:16;1.83;;;1.40;;
2934;SDS011;2462;51.456;7.248;2022-07-04T07:41:41;2.50;;;1.40;;
2934;SDS011;2462;51.456;7.248;2022-07-04T07:44:07;1.50;;;1.30;;
2934;SDS011;2462;51.456;7.248;2022-07-04T07:46:33;2.70;;;1.20;;
2934;SDS011;2462;51.456;7.248;2022-07-04T07:48:58;3.67;;;1.57;;
2934;SDS011;2462;51.456;7.248;2022-07-04T07:51:25;1.90;;;1.20;;
2934;SDS011;2462;51.456;7.248;2022-07-04T07:53:51;4.80;;;1.57;;
2934;SDS011;2462;51.456;7.248;2022-07-04T07:56:16;2.93;;;1.57;;
2934;SDS011;2462;51.456;7.248;2022-07-04T07:58:42;2.47;;;1.73;;
2934;SDS011;2462;51.456;7.248;2022-07-04T08:01:08;3.23;;;1.10;;
2934;SDS011;2462;51.456;7.248;2022-07-04T08:03:33;2.27;;;1.00;;
2934;SDS011;2462;51.456;7.248;2022-07-04T08:06:18;3.90;;;1.20;;
2934;SDS011;2462;51.456;7.248;2022-07-04T08:08:44;2.50;;;1.33;;
2934;SDS011;2462;51.456;7.248;2022-07-04T08:11:10;2.97;;;1.00;;
2934;SDS011;2462;51.456;7.248;2022-07-04T08:13:37;2.80;;;1.07;;
2934;SDS011;2462;51.456;7.248;2022-07-04T08:16:03;1.33;;;1.00;;
2934;SDS011;2462;51.456;7.248;2022-07-04T08:18:30;2.70;;;1.23;;
2934;SDS011;2462;51.456;7.248;2022-07-04T08:20:55;3.07;;;1.03;;
2934;SDS011;2462;51.456;7.248;2022-07-04T08:23:21;1.50;;;1.00;;
2934;SDS011;2462;51.456;7.248;2022-07-04T08:25:46;2.90;;;1.13;;
2934;SDS011;2462;51.456;7.248;2022-07-04T08:28:12;4.80;;;1.30;;
2934;SDS011;2462;51.456;7.248;2022-07-04T08:30:38;2.30;;;1.40;;
2934;SDS011;2462;51.456;7.248;2022-07-04T08:33:03;2.10;;;1.10;;
2934;SDS011;2462;51.456;7.248;2022-07-04T08:35:29;1.83;;;1.23;;
2934;SDS011;2462;51.456;7.248;2022-07-04T08:37:55;1.73;;;1.10;;
2934;SDS011;2462;51.456;7.248;2022-07-04T08:40:21;1.97;;;0.90;;
2934;SDS011;2462;51.456;7.248;2022-07-04T08:42:48;3.20;;;1.20;;
2934;SDS011;2462;51.456;7.248;2022-07-04T08:45:14;2.73;;;1.17;;
2934;SDS011;2462;51.456;7.248;2022-07-04T08:47:41;2.00;;;1.07;;
2934;SDS011;2462;51.456;7.248;2022-07-04T08:50:12;1.77;;;1.23;;
2934;SDS011;2462;51.456;7.248;2022-07-04T08:52:53;1.60;;;1.30;;
2934;SDS011;2462;51.456;7.248;2022-07-04T08:55:23;2.07;;;1.00;;
2934;SDS011;2462;51.456;7.248;2022-07-04T08:58:09;2.13;;;0.80;;
2934;SDS011;2462;51.456;7.248;2022-07-04T09:00:51;1.60;;;1.00;;
2934;SDS011;2462;51.456;7.248;2022-07-04T09:03:23;2.93;;;1.13;;
2934;SDS011;2462;51.456;7.248;2022-07-04T09:05:50;2.33;;;1.20;;
2934;SDS011;2462;51.456;7.248;2022-07-04T09:08:16;2.83;;;1.10;;
2934;SDS011;2462;51.456;7.248;2022-07-04T09:10:42;3.70;;;1.10;;
2934;SDS011;2462;51.456;7.248;2022-07-04T09:13:08;1.50;;;1.00;;
2934;SDS011;2462;51.456;7.248;2022-07-04T09:15:36;1.20;;;0.83;;
2934;SDS011;2462;51.456;7.248;2022-07-04T09:18:02;1.80;;;0.87;;
2934;SDS011;2462;51.456;7.248;2022-07-04T09:20:28;1.87;;;0.97;;
2934;SDS011;2462;51.456;7.248;2022-07-04T09:22:56;1.13;;;0.90;;
2934;SDS011;2462;51.456;7.248;2022-07-04T09:25:22;1.63;;;0.90;;
2934;SDS011;2462;51.456;7.248;2022-07-04T09:27:52;2.13;;;1.07;;
2934;SDS011;2462;51.456;7.248;2022-07-04T09:32:52;2.60;;;0.90;;
2934;SDS011;2462;51.456;7.248;2022-07-04T09:35:25;1.93;;;0.80;;
2934;SDS011;2462;51.456;7.248;2022-07-04T09:37:54;1.87;;;0.80;;
2934;SDS011;2462;51.456;7.248;2022-07-04T09:40:22;1.70;;;1.00;;
2934;SDS011;2462;51.456;7.248;2022-07-04T09:42:56;2.30;;;1.00;;
2934;SDS011;2462;51.456;7.248;2022-07-04T09:45:24;2.43;;;0.80;;
2934;SDS011;2462;51.456;7.248;2022-07-04T09:47:53;6.43;;;1.20;;
2934;SDS011;2462;51.456;7.248;2022-07-04T09:50:21;1.63;;;0.90;;
2934;SDS011;2462;51.456;7.248;2022-07-04T09:52:55;3.60;;;1.20;;
2934;SDS011;2462;51.456;7.248;2022-07-04T09:55:32;1.30;;;0.80;;
2934;SDS011;2462;51.456;7.248;2022-07-04T09:58:04;3.50;;;1.47;;
2934;SDS011;2462;51.456;7.248;2022-07-04T10:00:37;2.50;;;1.10;;
2934;SDS011;2462;51.456;7.248;2022-07-04T10:06:06;1.57;;;1.20;;
2934;SDS011;2462;51.456;7.248;2022-07-04T10:08:33;1.50;;;0.90;;
2934;SDS011;2462;51.456;7.248;2022-07-04T10:11:00;2.70;;;1.13;;
2934;SDS011;2462;51.456;7.248;2022-07-04T10:13:26;1.10;;;0.80;;
2934;SDS011;2462;51.456;7.248;2022-07-04T10:15:52;3.43;;;1.47;;
2934;SDS011;2462;51.456;7.248;2022-07-04T10:18:19;3.90;;;1.27;;
2934;SDS011;2462;51.456;7.248;2022-07-04T10:20:46;3.77;;;1.20;;
2934;SDS011;2462;51.456;7.248;2022-07-04T10:23:14;1.70;;;1.27;;
2934;SDS011;2462;51.456;7.248;2022-07-04T10:25:40;2.10;;;1.00;;
2934;SDS011;2462;51.456;7.248;2022-07-04T10:28:07;2.00;;;1.17;;
2934;SDS011;2462;51.456;7.248;2022-07-04T10:30:33;1.60;;;1.00;;
2934;SDS011;2462;51.456;7.248;2022-07-04T10:33:01;2.53;;;1.20;;
2934;SDS011;2462;51.456;7.248;2022-07-04T10:40:54;3.47;;;1.00;;
2934;SDS011;2462;51.456;7.248;2022-07-04T10:49:00;4.50;;;0.90;;
2934;SDS011;2462;51.456;7.248;2022-07-04T10:54:27;1.80;;;1.07;;
2934;SDS011;2462;51.456;7.248;2022-07-04T10:57:11;2.70;;;1.47;;
2934;SDS011;2462;51.456;7.248;2022-07-04T10:59:43;3.00;;;1.40;;
2934;SDS011;2462;51.456;7.248;2022-07-04T11:02:33;2.90;;;1.10;;
2934;SDS011;2462;51.456;7.248;2022-07-04T11:05:00;4.27;;;1.27;;
2934;SDS011;2462;51.456;7.248;2022-07-04T11:17:55;2.13;;;1.30;;
2934;SDS011;2462;51.456;7.248;2022-07-04T11:20:26;1.67;;;1.20;;
2934;SDS011;2462;51.456;7.248;2022-07-04T11:23:15;2.87;;;1.63;;
2934;SDS011;2462;51.456;7.248;2022-07-04T11:25:41;3.53;;;1.30;;
2934;SDS011;2462;51.456;7.248;2022-07-04T11:30:48;3.90;;;1.60;;
2934;SDS011;2462;51.456;7.248;2022-07-04T11:33:26;1.83;;;1.10;;
2934;SDS011;2462;51.456;7.248;2022-07-04T11:41:16;2.03;;;1.37;;
2934;SDS011;2462;51.456;7.248;2022-07-04T11:44:35;6.20;;;1.50;;
2934;SDS011;2462;51.456;7.248;2022-07-04T11:47:18;2.53;;;1.20;;
2934;SDS011;2462;51.456;7.248;2022-07-04T11:52:22;3.03;;;1.37;;
2934;SDS011;2462;51.456;7.248;2022-07-04T11:54:49;5.93;;;1.23;;
2934;SDS011;2462;51.456;7.248;2022-07-04T12:00:12;6.73;;;3.47;;
2934;SDS011;2462;51.456;7.248;2022-07-04T12:02:39;7.67;;;4.40;;
2934;SDS011;2462;51.456;7.248;2022-07-04T12:05:06;6.17;;;3.17;;
2934;SDS011;2462;51.456;7.248;2022-07-04T12:07:34;4.33;;;2.03;;
2934;SDS011;2462;51.456;7.248;2022-07-04T12:10:11;2.60;;;1.37;;
2934;SDS011;2462;51.456;7.248;2022-07-04T12:12:52;3.40;;;1.27;;
2934;SDS011;2462;51.456;7.248;2022-07-04T12:15:22;3.00;;;0.90;;
2934;SDS011;2462;51.456;7.248;2022-07-04T12:17:50;1.30;;;0.90;;
2934;SDS011;2462;51.456;7.248;2022-07-04T12:20:17;2.90;;;1.30;;
2934;SDS011;2462;51.456;7.248;2022-07-04T12:22:48;1.80;;;1.03;;
2934;SDS011;2462;51.456;7.248;2022-07-04T12:27:54;3.30;;;1.30;;
2934;SDS011;2462;51.456;7.248;2022-07-04T12:30:30;2.30;;;1.67;;
2934;SDS011;2462;51.456;7.248;2022-07-04T12:32:58;1.87;;;0.97;;
2934;SDS011;2462;51.456;7.248;2022-07-04T12:35:38;2.20;;;1.00;;
2934;SDS011;2462;51.456;7.248;2022-07-04T12:38:19;10.60;;;1.00;;
2934;SDS011;2462;51.456;7.248;2022-07-04T12:41:05;1.90;;;0.93;;
2934;SDS011;2462;51.456;7.248;2022-07-04T12:48:37;2.00;;;0.93;;
2934;SDS011;2462;51.456;7.248;2022-07-04T12:53:41;1.93;;;1.03;;
2934;SDS011;2462;51.456;7.248;2022-07-04T12:56:09;3.60;;;1.23;;
2934;SDS011;2462;51.456;7.248;2022-07-04T12:58:35;2.90;;;1.07;;
2934;SDS011;2462;51.456;7.248;2022-07-04T13:01:01;2.13;;;1.00;;
2934;SDS011;2462;51.456;7.248;2022-07-04T13:03:27;1.40;;;1.10;;
2934;SDS011;2462;51.456;7.248;2022-07-04T13:05:53;1.87;;;1.10;;
2934;SDS011;2462;51.456;7.248;2022-07-04T13:08:22;1.20;;;1.00;;
2934;SDS011;2462;51.456;7.248;2022-07-04T13:10:47;2.63;;;1.30;;
2934;SDS011;2462;51.456;7.248;2022-07-04T13:13:13;1.53;;;1.10;;
2934;SDS011;2462;51.456;7.248;2022-07-04T13:15:38;2.67;;;1.07;;
2934;SDS011;2462;51.456;7.248;2022-07-04T13:18:04;2.20;;;0.93;;
2934;SDS011;2462;51.456;7.248;2022-07-04T13:20:30;6.47;;;1.00;;
2934;SDS011;2462;51.456;7.248;2022-07-04T13:22:55;19.30;;;1.90;;
2934;SDS011;2462;51.456;7.248;2022-07-04T13:25:21;7.50;;;1.40;;
2934;SDS011;2462;51.456;7.248;2022-07-04T13:27:47;4.10;;;1.43;;
2934;SDS011;2462;51.456;7.248;2022-07-04T13:30:13;4.13;;;1.00;;
2934;SDS011;2462;51.456;7.248;2022-07-04T13:32:38;2.83;;;1.27;;
2934;SDS011;2462;51.456;7.248;2022-07-04T13:35:04;2.70;;;1.00;;
2934;SDS011;2462;51.456;7.248;2022-07-04T13:37:30;1.90;;;1.30;;
2934;SDS011;2462;51.456;7.248;2022-07-04T13:39:55;5.63;;;1.43;;
2934;SDS011;2462;51.456;7.248;2022-07-04T13:42:21;3.67;;;1.37;;
2934;SDS011;2462;51.456;7.248;2022-07-04T13:45:06;1.70;;;1.00;;
2934;SDS011;2462;51.456;7.248;2022-07-04T13:47:33;2.63;;;1.10;;
2934;SDS011;2462;51.456;7.248;2022-07-04T13:49:59;1.97;;;1.10;;
2934;SDS011;2462;51.456;7.248;2022-07-04T13:52:25;1.50;;;0.97;;
2934;SDS011;2462;51.456;7.248;2022-07-04T13:54:50;1.50;;;1.03;;
2934;SDS011;2462;51.456;7.248;2022-07-04T13:57:16;1.40;;;1.17;;
2934;SDS011;2462;51.456;7.248;2022-07-04T13:59:42;3.27;;;1.27;;
2934;SDS011;2462;51.456;7.248;2022-07-04T14:02:08;2.93;;;1.40;;
2934;SDS011;2462;51.456;7.248;2022-07-04T14:04:33;2.40;;;1.10;;
2934;SDS011;2462;51.456;7.248;2022-07-04T14:06:59;1.83;;;1.03;;
2934;SDS011;2462;51.456;7.248;2022-07-04T14:09:25;6.10;;;1.20;;
2934;SDS011;2462;51.456;7.248;2022-07-04T14:11:51;1.23;;;0.87;;
2934;SDS011;2462;51.456;7.248;2022-07-04T14:14:16;1.50;;;1.00;;
2934;SDS011;2462;51.456;7.248;2022-07-04T14:16:42;2.40;;;1.13;;
2934;SDS011;2462;51.456;7.248;2022-07-04T14:19:07;2.17;;;0.90;;
2934;SDS011;2462;51.456;7.248;2022-07-04T14:21:33;1.47;;;0.90;;
2934;SDS011;2462;51.456;7.248;2022-07-04T14:23:58;3.17;;;1.00;;
2934;SDS011;2462;51.456;7.248;2022-07-04T14:26:24;2.27;;;1.00;;
2934;SDS011;2462;51.456;7.248;2022-07-04T14:28:50;3.17;;;0.90;;
2934;SDS011;2462;51.456;7.248;2022-07-04T14:31:16;2.13;;;0.90;;
2934;SDS011;2462;51.456;7.248;2022-07-04T14:33:42;2.03;;;0.93;;
2934;SDS011;2462;51.456;7.248;2022-07-04T14:36:08;1.30;;;1.10;;
2934;SDS011;2462;51.456;7.248;2022-07-04T14:38:35;1.43;;;0.70;;
2934;SDS011;2462;51.456;7.248;2022-07-04T14:41:03;1.63;;;0.97;;
2934;SDS011;2462;51.456;7.248;2022-07-04T14:43:35;1.10;;;0.70;;
2934;SDS011;2462;51.456;7.248;2022-07-04T14:46:02;4.07;;;1.67;;
2934;SDS011;2462;51.456;7.248;2022-07-04T14:48:27;1.83;;;0.93;;
2934;SDS011;2462;51.456;7.248;2022-07-04T14:50:53;1.93;;;0.97;;
2934;SDS011;2462;51.456;7.248;2022-07-04T14:53:18;1.93;;;1.33;;
2934;SDS011;2462;51.456;7.248;2022-07-04T14:55:45;2.13;;;1.00;;
2934;SDS011;2462;51.456;7.248;2022-07-04T14:58:11;2.70;;;0.93;;
2934;SDS011;2462;51.456;7.248;2022-07-04T15:00:38;1.60;;;1.00;;
2934;SDS011;2462;51.456;7.248;2022-07-04T15:03:04;2.90;;;1.00;;
2934;SDS011;2462;51.456;7.248;2022-07-04T15:05:29;1.67;;;0.93;;
2934;SDS011;2462;51.456;7.248;2022-07-04T15:07:55;2.20;;;0.90;;
2934;SDS011;2462;51.456;7.248;2022-07-04T15:10:22;1.83;;;1.00;;
2934;SDS011;2462;51.456;7.248;2022-07-04T15:12:48;2.40;;;0.90;;
2934;SDS011;2462;51.456;7.248;2022-07-04T15:15:14;1.43;;;0.90;;
2934;SDS011;2462;51.456;7.248;2022-07-04T15:17:39;1.60;;;0.90;;
2934;SDS011;2462;51.456;7.248;2022-07-04T15:20:05;2.60;;;1.03;;
2934;SDS011;2462;51.456;7.248;2022-07-04T15:22:49;2.37;;;1.50;;
2934;SDS011;2462;51.456;7.248;2022-07-04T15:25:33;3.20;;;0.90;;
2934;SDS011;2462;51.456;7.248;2022-07-04T15:27:59;2.17;;;1.00;;
2934;SDS011;2462;51.456;7.248;2022-07-04T15:30:24;3.30;;;0.93;;
2934;SDS011;2462;51.456;7.248;2022-07-04T15:32:50;2.23;;;1.10;;
2934;SDS011;2462;51.456;7.248;2022-07-04T15:35:16;2.50;;;1.10;;
2934;SDS011;2462;51.456;7.248;2022-07-04T15:37:41;3.50;;;1.00;;
2934;SDS011;2462;51.456;7.248;2022-07-04T15:40:07;2.20;;;1.13;;
2934;SDS011;2462;51.456;7.248;2022-07-04T15:42:33;2.03;;;1.07;;
2934;SDS011;2462;51.456;7.248;2022-07-04T15:44:58;1.73;;;1.10;;
2934;SDS011;2462;51.456;7.248;2022-07-04T15:47:24;2.50;;;1.00;;
2934;SDS011;2462;51.456;7.248;2022-07-04T15:49:50;1.73;;;1.10;;
2934;SDS011;2462;51.456;7.248;2022-07-04T15:52:15;2.03;;;1.17;;
2934;SDS011;2462;51.456;7.248;2022-07-04T15:54:41;2.53;;;1.10;;
2934;SDS011;2462;51.456;7.248;2022-07-04T15:57:07;1.53;;;1.07;;
2934;SDS011;2462;51.456;7.248;2022-07-04T15:59:33;2.20;;;1.00;;
2934;SDS011;2462;51.456;7.248;2022-07-04T16:01:58;4.00;;;1.37;;
2934;SDS011;2462;51.456;7.248;2022-07-04T16:04:24;2.03;;;1.10;;
2934;SDS011;2462;51.456;7.248;2022-07-04T16:06:50;1.83;;;1.23;;
2934;SDS011;2462;51.456;7.248;2022-07-04T16:09:15;1.77;;;1.20;;